Wetterdaten: Woche 30.01.17 - 05.02.17 (KW5)
Datum Zeit Temp. A. Feuchte A. Luftdruck Regen Wind Richtung Sonnenschein ET UV Solar Taupunkt Windchill Windben Empfang
30.01.2017 00:00 -7,7 C 94 % 1026,4 hPa 0,0 l/m 1,5 km/h (1 Bft) O-NO 0,00 h 0,000 mm 0,0 UV-I 0 W/m -8,5 C -7,7 C 3,1 km/h (1 Bft) 96,68 %
30.01.2017 01:00 -7,7 C 94 % 1026,1 hPa 0,0 l/m 2,7 km/h (1 Bft) O-NO 0,00 h 0,000 mm 0,0 UV-I 0 W/m -8,5 C -7,7 C 4,4 km/h (1 Bft) 97,76 %
30.01.2017 02:00 -7,7 C 94 % 1025,8 hPa 0,0 l/m 2,3 km/h (1 Bft) O-NO 0,00 h 0,000 mm 0,0 UV-I 0 W/m -8,5 C -7,7 C 3,8 km/h (1 Bft) 97,43 %
30.01.2017 03:00 -7,7 C 94 % 1025,4 hPa 0,0 l/m 2,3 km/h (1 Bft) O-NO 0,00 h 0,000 mm 0,0 UV-I 0 W/m -8,5 C -7,7 C 4,1 km/h (1 Bft) 97,82 %
30.01.2017 04:00 -7,7 C 94 % 1025,2 hPa 0,0 l/m 1,7 km/h (1 Bft) O-NO 0,00 h 0,000 mm 0,0 UV-I 0 W/m -8,5 C -7,7 C 3,4 km/h (1 Bft) 96,71 %
30.01.2017 05:00 -7,7 C 94 % 1024,9 hPa 0,0 l/m 2,5 km/h (1 Bft) O-NO 0,00 h 0,000 mm 0,0 UV-I 0 W/m -8,5 C -7,7 C 4,2 km/h (1 Bft) 97,42 %
30.01.2017 06:00 -7,6 C 94 % 1024,6 hPa 0,0 l/m 2,4 km/h (1 Bft) O-NO 0,00 h 0,000 mm 0,0 UV-I 0 W/m -8,4 C -7,6 C 4,1 km/h (1 Bft) 97,60 %
30.01.2017 07:00 -7,6 C 94 % 1024,6 hPa 0,0 l/m 2,4 km/h (1 Bft) O-NO 0,00 h 0,000 mm 0,0 UV-I 7 W/m -8,3 C -7,6 C 4,2 km/h (1 Bft) 96,89 %
30.01.2017 08:00 -7,4 C 94 % 1024,5 hPa 0,0 l/m 3,0 km/h (1 Bft) O-NO 0,00 h 0,000 mm 0,0 UV-I 28 W/m -8,2 C -7,4 C 4,7 km/h (1 Bft) 98,55 %
30.01.2017 09:00 -7,3 C 94 % 1024,3 hPa 0,0 l/m 3,2 km/h (1 Bft) O-NO 0,00 h 0,000 mm 0,0 UV-I 64 W/m -8,1 C -7,3 C 5,0 km/h (1 Bft) 97,92 %
30.01.2017 10:00 -7,3 C 94 % 1023,9 hPa 0,0 l/m 6,1 km/h (2 Bft) O-NO 0,00 h 0,025 mm 0,5 UV-I 104 W/m -8,1 C -7,9 C 9,1 km/h (2 Bft) 99,02 %
30.01.2017 11:00 -7,2 C 94 % 1023,3 hPa 0,0 l/m 6,5 km/h (2 Bft) O-NO 0,00 h 0,026 mm 0,6 UV-I 133 W/m -8,0 C -8,0 C 9,8 km/h (2 Bft) 98,48 %
30.01.2017 12:00 -6,8 C 94 % 1022,4 hPa 0,0 l/m 7,1 km/h (2 Bft) O-NO 0,00 h 0,025 mm 0,6 UV-I 145 W/m -7,6 C -8,0 C 11,2 km/h (2 Bft) 98,92 %
30.01.2017 13:00 -6,6 C 94 % 1021,6 hPa 0,0 l/m 8,7 km/h (2 Bft) O-NO 0,00 h 0,026 mm 0,5 UV-I 142 W/m -7,4 C -9,3 C 13,5 km/h (3 Bft) 98,66 %
30.01.2017 14:00 -6,7 C 94 % 1020,9 hPa 0,0 l/m 12,6 km/h (3 Bft) O-NO 0,00 h 0,025 mm 0,0 UV-I 110 W/m -7,5 C -13,1 C 17,3 km/h (3 Bft) 98,39 %
30.01.2017 15:00 -6,6 C 94 % 1020,5 hPa 0,0 l/m 10,7 km/h (2 Bft) O-NO 0,00 h 0,025 mm 0,0 UV-I 68 W/m -7,4 C -11,3 C 15,7 km/h (3 Bft) 97,99 %
30.01.2017 16:00 -6,6 C 95 % 1020,4 hPa 0,0 l/m 8,6 km/h (2 Bft) O-NO 0,03 h 0,026 mm 0,0 UV-I 22 W/m -7,3 C -9,3 C 12,8 km/h (3 Bft) 98,35 %
30.01.2017 17:00 -6,7 C 94 % 1020,4 hPa 0,0 l/m 7,5 km/h (2 Bft) O-NO 0,00 h 0,000 mm 0,0 UV-I 5 W/m -7,5 C -8,3 C 11,3 km/h (2 Bft) 97,89 %
30.01.2017 18:00 -6,7 C 95 % 1020,6 hPa 0,0 l/m 5,6 km/h (1 Bft) O-NO 0,00 h 0,000 mm 0,0 UV-I 0 W/m -7,4 C -8,0 C 8,5 km/h (2 Bft) 98,38 %
30.01.2017 19:00 -6,7 C 95 % 1020,5 hPa 0,0 l/m 10,0 km/h (2 Bft) O-NO 0,00 h 0,000 mm 0,0 UV-I 0 W/m -7,5 C -10,7 C 14,8 km/h (3 Bft) 98,39 %
30.01.2017 20:00 -6,8 C 95 % 1020,5 hPa 0,0 l/m 10,2 km/h (2 Bft) O-NO 0,00 h 0,000 mm 0,0 UV-I 0 W/m -7,5 C -11,0 C 14,7 km/h (3 Bft) 99,11 %
30.01.2017 21:00 -6,8 C 95 % 1019,9 hPa 0,0 l/m 10,5 km/h (2 Bft) O-NO 0,00 h 0,000 mm 0,0 UV-I 0 W/m -7,5 C -11,0 C 17,2 km/h (3 Bft) 98,72 %
30.01.2017 22:00 -6,8 C 95 % 1019,8 hPa 0,0 l/m 10,1 km/h (2 Bft) O-NO 0,00 h 0,000 mm 0,0 UV-I 0 W/m -7,5 C -11,2 C 14,1 km/h (3 Bft) 98,96 %
30.01.2017 23:00 -6,7 C 95 % 1019,7 hPa 0,0 l/m 9,3 km/h (2 Bft) O-NO 0,00 h 0,000 mm 0,0 UV-I 0 W/m -7,4 C -10,1 C 13,9 km/h (3 Bft) 97,50 %
31.01.2017 00:00 -6,6 C 95 % 1019,5 hPa 0,0 l/m 10,3 km/h (2 Bft) O-NO 0,00 h 0,000 mm 0,0 UV-I 0 W/m -7,3 C -10,9 C 15,1 km/h (3 Bft) 99,27 %
31.01.2017 01:00 -6,4 C 95 % 1019,4 hPa 0,0 l/m 11,0 km/h (2 Bft) O-NO 0,00 h 0,000 mm 0,0 UV-I 0 W/m -7,1 C -11,4 C 15,9 km/h (3 Bft) 97,69 %
31.01.2017 02:00 -6,3 C 95 % 1019,3 hPa 0,0 l/m 9,8 km/h (2 Bft) O-NO 0,00 h 0,000 mm 0,0 UV-I 0 W/m -6,9 C -10,1 C 14,7 km/h (3 Bft) 99,11 %
31.01.2017 03:00 -6,3 C 95 % 1018,8 hPa 0,0 l/m 11,0 km/h (2 Bft) O-NO 0,00 h 0,000 mm 0,0 UV-I 0 W/m -6,9 C -11,2 C 16,1 km/h (3 Bft) 97,26 %
31.01.2017 04:00 -6,2 C 95 % 1018,4 hPa 0,0 l/m 12,3 km/h (3 Bft) O-NO 0,00 h 0,000 mm 0,0 UV-I 0 W/m -6,9 C -12,4 C 17,5 km/h (3 Bft) 98,45 %
31.01.2017 05:00 -6,1 C 95 % 1018,3 hPa 0,0 l/m 9,4 km/h (2 Bft) O-NO 0,00 h 0,000 mm 0,0 UV-I 0 W/m -6,7 C -9,3 C 14,0 km/h (3 Bft) 96,83 %
31.01.2017 06:00 -5,8 C 95 % 1018,0 hPa 0,0 l/m 10,8 km/h (2 Bft) O-NO 0,00 h 0,000 mm 0,0 UV-I 0 W/m -6,5 C -10,5 C 15,0 km/h (3 Bft) 99,15 %
31.01.2017 07:00 -6,0 C 95 % 1017,6 hPa 0,0 l/m 9,7 km/h (2 Bft) NO 0,00 h 0,000 mm 0,0 UV-I 7 W/m -6,7 C -9,6 C 13,8 km/h (3 Bft) 95,41 %
31.01.2017 08:00 -5,9 C 95 % 1017,3 hPa 0,0 l/m 11,2 km/h (2 Bft) O-NO 0,00 h 0,000 mm 0,0 UV-I 18 W/m -6,6 C -10,9 C 15,7 km/h (3 Bft) 97,32 %
31.01.2017 09:00 -5,6 C 95 % 1017,6 hPa 0,0 l/m 7,0 km/h (2 Bft) NO 0,00 h 0,000 mm 0,0 UV-I 48 W/m -6,3 C -6,7 C 10,9 km/h (2 Bft) 95,82 %
31.01.2017 10:00 -4,7 C 95 % 1017,8 hPa 0,0 l/m 6,5 km/h (2 Bft) O-NO 0,00 h 0,025 mm 0,0 UV-I 75 W/m -5,4 C -5,5 C 9,9 km/h (2 Bft) 97,40 %
31.01.2017 11:00 -4,0 C 95 % 1017,5 hPa 0,0 l/m 7,3 km/h (2 Bft) O-NO 0,00 h 0,026 mm 0,4 UV-I 114 W/m -4,7 C -5,6 C 10,7 km/h (2 Bft) 94,69 %
31.01.2017 12:00 -3,4 C 95 % 1017,5 hPa 0,6 l/m 7,0 km/h (2 Bft) NO 0,00 h 0,025 mm 0,0 UV-I 35 W/m -4,1 C -4,4 C 10,2 km/h (2 Bft) 97,18 %
31.01.2017 13:00 -2,9 C 95 % 1017,5 hPa 0,0 l/m 6,9 km/h (2 Bft) O-NO 0,00 h 0,000 mm 0,0 UV-I 69 W/m -3,6 C -4,4 C 10,3 km/h (2 Bft) 95,66 %
31.01.2017 14:00 -2,3 C 95 % 1017,3 hPa 0,0 l/m 5,4 km/h (1 Bft) O-NO 0,00 h 0,026 mm 0,0 UV-I 62 W/m -3,0 C -2,5 C 8,0 km/h (2 Bft) 95,82 %
31.01.2017 15:00 -2,1 C 96 % 1017,2 hPa 0,0 l/m 5,5 km/h (1 Bft) NO 0,00 h 0,025 mm 0,0 UV-I 39 W/m -2,7 C -2,1 C 7,7 km/h (2 Bft) 94,31 %
31.01.2017 16:00 -1,8 C 96 % 1017,3 hPa 0,0 l/m 5,7 km/h (1 Bft) NO 0,00 h 0,025 mm 0,0 UV-I 15 W/m -2,4 C -2,0 C 7,8 km/h (2 Bft) 95,60 %
31.01.2017 17:00 -1,8 C 96 % 1017,5 hPa 0,0 l/m 5,0 km/h (1 Bft) NO 0,00 h 0,000 mm 0,0 UV-I 4 W/m -2,3 C -1,8 C 6,8 km/h (2 Bft) 94,97 %
31.01.2017 18:00 -1,5 C 97 % 1017,9 hPa 0,0 l/m 3,3 km/h (1 Bft) NO 0,00 h 0,000 mm 0,0 UV-I 0 W/m -2,0 C -1,5 C 5,1 km/h (1 Bft) 96,15 %
31.01.2017 19:00 -1,5 C 97 % 1018,0 hPa 0,0 l/m 2,5 km/h (1 Bft) NO 0,00 h 0,000 mm 0,0 UV-I 0 W/m -1,9 C -1,6 C 4,5 km/h (1 Bft) 95,45 %
31.01.2017 20:00 -1,6 C 97 % 1018,2 hPa 0,0 l/m 2,2 km/h (1 Bft) O-NO 0,00 h 0,000 mm 0,0 UV-I 0 W/m -2,0 C -1,6 C 3,6 km/h (1 Bft) 97,89 %
31.01.2017 21:00 -1,4 C 97 % 1018,4 hPa 0,0 l/m 0,2 km/h (0 Bft) NO 0,00 h 0,000 mm 0,0 UV-I 0 W/m -1,8 C -1,4 C 0,6 km/h (0 Bft) 95,99 %
31.01.2017 22:00 -1,5 C 97 % 1018,6 hPa 0,0 l/m 0,3 km/h (0 Bft) O 0,00 h 0,000 mm 0,0 UV-I 0 W/m -1,9 C -1,5 C 0,5 km/h (0 Bft) 97,69 %
31.01.2017 23:00 -1,5 C 97 % 1018,9 hPa 0,0 l/m 0,7 km/h (0 Bft) N-NO 0,00 h 0,000 mm 0,0 UV-I 0 W/m -1,9 C -1,5 C 1,7 km/h (1 Bft) 96,95 %
01.02.2017 00:00 -1,6 C 97 % 1019,0 hPa 0,0 l/m 0,3 km/h (0 Bft) N-NO 0,00 h 0,000 mm 0,0 UV-I 0 W/m -2,0 C -1,6 C 0,6 km/h (0 Bft) 98,03 %
01.02.2017 01:00 -1,7 C 97 % 1019,4 hPa 0,0 l/m 1,2 km/h (1 Bft) N-NO 0,00 h 0,000 mm 0,0 UV-I 0 W/m -2,1 C -1,7 C 2,6 km/h (1 Bft) 96,46 %
01.02.2017 02:00 -1,9 C 97 % 1019,8 hPa 0,0 l/m 0,8 km/h (0 Bft) N-NO 0,00 h 0,000 mm 0,0 UV-I 0 W/m -2,3 C -1,9 C 1,5 km/h (1 Bft) 98,49 %
01.02.2017 03:00 -1,9 C 97 % 1019,9 hPa 0,0 l/m 1,0 km/h (0 Bft) O-NO 0,00 h 0,000 mm 0,0 UV-I 0 W/m -2,3 C -1,9 C 2,0 km/h (1 Bft) 96,55 %
01.02.2017 04:00 -2,1 C 97 % 1020,2 hPa 0,0 l/m 2,2 km/h (1 Bft) NO 0,00 h 0,000 mm 0,0 UV-I 0 W/m -2,6 C -2,1 C 3,4 km/h (1 Bft) 98,31 %
01.02.2017 05:00 -2,4 C 97 % 1020,3 hPa 0,0 l/m 3,8 km/h (1 Bft) NO 0,00 h 0,000 mm 0,0 UV-I 0 W/m -2,9 C -2,4 C 5,3 km/h (1 Bft) 97,32 %
01.02.2017 06:00 -2,7 C 97 % 1020,3 hPa 0,0 l/m 4,6 km/h (1 Bft) NO 0,00 h 0,000 mm 0,0 UV-I 0 W/m -3,1 C -2,7 C 6,4 km/h (2 Bft) 97,39 %
01.02.2017 07:00 -2,9 C 97 % 1020,7 hPa 0,0 l/m 5,0 km/h (1 Bft) NO 0,00 h 0,000 mm 0,0 UV-I 8 W/m -3,3 C -2,9 C 6,8 km/h (2 Bft) 95,77 %
01.02.2017 08:00 -3,0 C 97 % 1021,0 hPa 0,0 l/m 3,9 km/h (1 Bft) NO 0,00 h 0,000 mm 0,0 UV-I 24 W/m -3,4 C -3,0 C 5,5 km/h (1 Bft) 96,67 %
01.02.2017 09:00 -2,8 C 97 % 1021,0 hPa 0,0 l/m 4,1 km/h (1 Bft) NO 0,00 h 0,000 mm 0,0 UV-I 78 W/m -3,2 C -2,8 C 5,6 km/h (1 Bft) 97,64 %
01.02.2017 10:00 -2,3 C 95 % 1021,2 hPa 0,0 l/m 4,7 km/h (1 Bft) O-NO 0,07 h 0,025 mm 0,5 UV-I 157 W/m -2,9 C -2,3 C 6,3 km/h (2 Bft) 98,05 %
01.02.2017 11:00 -1,5 C 95 % 1021,0 hPa 0,0 l/m 4,3 km/h (1 Bft) NO 0,00 h 0,051 mm 0,5 UV-I 135 W/m -2,2 C -1,6 C 5,9 km/h (2 Bft) 97,56 %
01.02.2017 12:00 -1,3 C 95 % 1020,4 hPa 0,0 l/m 5,4 km/h (1 Bft) NO 0,00 h 0,051 mm 0,5 UV-I 135 W/m -2,0 C -1,4 C 7,2 km/h (2 Bft) 96,56 %
01.02.2017 13:00 -1,2 C 95 % 1019,8 hPa 0,0 l/m 3,9 km/h (1 Bft) NO 0,00 h 0,051 mm 0,4 UV-I 111 W/m -1,9 C -1,2 C 5,7 km/h (1 Bft) 97,37 %
01.02.2017 14:00 -1,1 C 96 % 1019,5 hPa 0,0 l/m 1,7 km/h (1 Bft) NO 0,00 h 0,025 mm 0,0 UV-I 60 W/m -1,7 C -1,1 C 3,1 km/h (1 Bft) 96,90 %
01.02.2017 15:00 -1,1 C 96 % 1019,5 hPa 0,0 l/m 1,8 km/h (1 Bft) N-NO 0,00 h 0,026 mm 0,0 UV-I 36 W/m -1,7 C -1,1 C 3,6 km/h (1 Bft) 98,55 %
01.02.2017 16:00 -0,9 C 97 % 1019,6 hPa 0,0 l/m 1,7 km/h (1 Bft) O-NO 0,07 h 0,000 mm 0,0 UV-I 20 W/m -1,4 C -0,9 C 3,0 km/h (1 Bft) 99,15 %
01.02.2017 17:00 -0,9 C 97 % 1019,9 hPa 0,0 l/m 1,0 km/h (0 Bft) NO 0,00 h 0,000 mm 0,0 UV-I 5 W/m -1,4 C -0,9 C 1,8 km/h (1 Bft) 96,38 %
01.02.2017 18:00 -0,9 C 97 % 1020,2 hPa 0,0 l/m 1,2 km/h (1 Bft) N-NO 0,00 h 0,000 mm 0,0 UV-I 0 W/m -1,4 C -0,9 C 2,4 km/h (1 Bft) 98,79 %
01.02.2017 19:00 -1,1 C 97 % 1020,2 hPa 0,0 l/m 5,3 km/h (1 Bft) O-NO 0,00 h 0,000 mm 0,0 UV-I 0 W/m -1,6 C -1,2 C 7,8 km/h (2 Bft) 98,63 %
01.02.2017 20:00 -1,3 C 96 % 1020,1 hPa 0,0 l/m 2,3 km/h (1 Bft) NO 0,00 h 0,000 mm 0,0 UV-I 0 W/m -1,9 C -1,3 C 3,9 km/h (1 Bft) 98,34 %
01.02.2017 21:00 -1,3 C 96 % 1019,9 hPa 0,0 l/m 2,6 km/h (1 Bft) NO 0,00 h 0,000 mm 0,0 UV-I 0 W/m -1,9 C -1,3 C 3,9 km/h (1 Bft) 98,85 %
01.02.2017 22:00 -1,4 C 96 % 1019,6 hPa 0,0 l/m 3,1 km/h (1 Bft) NO 0,00 h 0,000 mm 0,0 UV-I 0 W/m -1,9 C -1,4 C 4,6 km/h (1 Bft) 98,46 %
01.02.2017 23:00 -1,4 C 96 % 1019,5 hPa 0,0 l/m 3,0 km/h (1 Bft) O-NO 0,00 h 0,000 mm 0,0 UV-I 0 W/m -1,9 C -1,4 C 4,5 km/h (1 Bft) 98,62 %
02.02.2017 00:00 -1,5 C 97 % 1019,4 hPa 0,0 l/m 3,3 km/h (1 Bft) O-NO 0,00 h 0,000 mm 0,0 UV-I 0 W/m -1,9 C -1,5 C 4,9 km/h (1 Bft) 98,44 %
02.02.2017 01:00 -1,6 C 97 % 1019,0 hPa 0,0 l/m 3,8 km/h (1 Bft) NO 0,00 h 0,000 mm 0,0 UV-I 0 W/m -2,0 C -1,6 C 5,5 km/h (1 Bft) 98,86 %
02.02.2017 02:00 -1,3 C 96 % 1018,9 hPa 0,0 l/m 4,7 km/h (1 Bft) NO 0,00 h 0,000 mm 0,0 UV-I 0 W/m -1,9 C -1,3 C 6,3 km/h (2 Bft) 97,73 %
02.02.2017 03:00 -1,3 C 96 % 1018,6 hPa 0,0 l/m 4,4 km/h (1 Bft) O-NO 0,00 h 0,000 mm 0,0 UV-I 0 W/m -1,8 C -1,3 C 6,1 km/h (2 Bft) 99,25 %
02.02.2017 04:00 -1,3 C 96 % 1018,6 hPa 0,0 l/m 3,2 km/h (1 Bft) N-NO 0,00 h 0,000 mm 0,0 UV-I 0 W/m -1,8 C -1,3 C 5,1 km/h (1 Bft) 97,95 %
02.02.2017 05:00 -1,4 C 96 % 1018,4 hPa 0,0 l/m 2,5 km/h (1 Bft) NO 0,00 h 0,000 mm 0,0 UV-I 0 W/m -1,9 C -1,4 C 4,1 km/h (1 Bft) 99,46 %
02.02.2017 06:00 -1,5 C 96 % 1018,3 hPa 0,0 l/m 3,9 km/h (1 Bft) NO 0,00 h 0,000 mm 0,0 UV-I 0 W/m -2,0 C -1,5 C 5,5 km/h (1 Bft) 95,11 %
02.02.2017 07:00 -1,8 C 97 % 1018,4 hPa 0,0 l/m 2,5 km/h (1 Bft) NO 0,03 h 0,000 mm 0,0 UV-I 11 W/m -2,2 C -1,8 C 3,8 km/h (1 Bft) 97,06 %
02.02.2017 08:00 -1,8 C 97 % 1018,2 hPa 0,0 l/m 3,3 km/h (1 Bft) O-NO 0,00 h 0,000 mm 0,0 UV-I 48 W/m -2,2 C -1,8 C 5,0 km/h (1 Bft) 95,98 %
02.02.2017 09:00 -1,6 C 96 % 1018,0 hPa 0,0 l/m 4,5 km/h (1 Bft) O-NO 0,00 h 0,025 mm 0,0 UV-I 82 W/m -2,1 C -1,6 C 6,1 km/h (2 Bft) 97,33 %
02.02.2017 10:00 -1,2 C 96 % 1017,7 hPa 0,0 l/m 4,6 km/h (1 Bft) O-NO 0,00 h 0,026 mm 0,4 UV-I 140 W/m -1,7 C -1,2 C 6,6 km/h (2 Bft) 95,13 %
02.02.2017 11:00 -0,5 C 95 % 1017,3 hPa 0,0 l/m 4,7 km/h (1 Bft) O-NO 0,43 h 0,051 mm 0,8 UV-I 246 W/m -1,2 C -0,5 C 6,6 km/h (2 Bft) 96,51 %
02.02.2017 12:00 -0,2 C 94 % 1016,6 hPa 0,2 l/m 1,6 km/h (1 Bft) O-NO 0,43 h 0,076 mm 0,9 UV-I 215 W/m -1,0 C -0,2 C 2,2 km/h (1 Bft) 95,00 %
02.02.2017 13:00 -0,2 C 96 % 1015,6 hPa 0,0 l/m 0,0 km/h (0 Bft) N 0,00 h 0,076 mm 0,7 UV-I 158 W/m -0,9 C -0,2 C 0,0 km/h (0 Bft) 97,02 %
02.02.2017 14:00 -0,3 C 97 % 1015,0 hPa 0,0 l/m 0,0 km/h (0 Bft) N 0,00 h 0,051 mm 0,0 UV-I 118 W/m -0,7 C -0,3 C 0,0 km/h (0 Bft) 95,74 %
02.02.2017 15:00 -0,3 C 97 % 1014,8 hPa 0,0 l/m 0,0 km/h (0 Bft) N 0,00 h 0,051 mm 0,0 UV-I 52 W/m -0,7 C -0,3 C 0,0 km/h (0 Bft) 95,02 %
02.02.2017 16:00 -0,4 C 98 % 1014,6 hPa 0,0 l/m 0,0 km/h (0 Bft) N 0,00 h 0,025 mm 0,0 UV-I 21 W/m -0,7 C -0,4 C 0,0 km/h (0 Bft) 95,16 %
02.02.2017 17:00 -0,3 C 98 % 1014,6 hPa 0,0 l/m 0,0 km/h (0 Bft) N 0,00 h 0,000 mm 0,0 UV-I 5 W/m -0,5 C -0,3 C 0,0 km/h (0 Bft) 96,25 %
02.02.2017 18:00 -0,2 C 98 % 1014,7 hPa 0,0 l/m 0,0 km/h (0 Bft) N 0,00 h 0,000 mm 0,0 UV-I 0 W/m -0,5 C -0,2 C 0,0 km/h (0 Bft) 92,86 %
02.02.2017 19:00 -0,5 C 98 % 1014,7 hPa 0,0 l/m 0,0 km/h (0 Bft) N 0,00 h 0,000 mm 0,0 UV-I 0 W/m -0,8 C -0,5 C 0,0 km/h (0 Bft) 96,83 %
02.02.2017 20:00 -0,8 C 98 % 1014,3 hPa 0,0 l/m 0,0 km/h (0 Bft) N 0,00 h 0,000 mm 0,0 UV-I 0 W/m -1,1 C -0,8 C 0,0 km/h (0 Bft) 96,26 %
02.02.2017 21:00 -1,0 C 98 % 1014,0 hPa 0,0 l/m 0,0 km/h (0 Bft) N 0,00 h 0,000 mm 0,0 UV-I 0 W/m -1,2 C -1,0 C 0,0 km/h (0 Bft) 96,76 %
02.02.2017 22:00 -1,1 C 98 % 1013,7 hPa 0,0 l/m 0,0 km/h (0 Bft) N 0,00 h 0,000 mm 0,0 UV-I 0 W/m -1,4 C -1,1 C 0,0 km/h (0 Bft) 95,75 %
02.02.2017 23:00 -1,2 C 98 % 1013,3 hPa 0,0 l/m 0,0 km/h (0 Bft) N 0,00 h 0,000 mm 0,0 UV-I 0 W/m -1,5 C -1,2 C 0,0 km/h (0 Bft) 97,78 %
03.02.2017 00:00 -1,4 C 98 % 1012,7 hPa 0,0 l/m 0,0 km/h (0 Bft) N 0,00 h 0,000 mm 0,0 UV-I 0 W/m -1,6 C -1,4 C 0,0 km/h (0 Bft) 96,28 %
03.02.2017 01:00 -1,5 C 98 % 1012,4 hPa 0,0 l/m 0,0 km/h (0 Bft) N 0,00 h 0,000 mm 0,0 UV-I 0 W/m -1,8 C -1,5 C 0,0 km/h (0 Bft) 97,09 %
03.02.2017 02:00 -1,7 C 98 % 1012,0 hPa 0,0 l/m 0,0 km/h (0 Bft) N 0,00 h 0,000 mm 0,0 UV-I 0 W/m -1,9 C -1,7 C 0,0 km/h (0 Bft) 96,39 %
03.02.2017 03:00 -1,7 C 98 % 1011,4 hPa 0,0 l/m 0,0 km/h (0 Bft) N 0,00 h 0,000 mm 0,0 UV-I 0 W/m -2,0 C -1,7 C 0,0 km/h (0 Bft) 96,46 %
03.02.2017 04:00 -1,8 C 98 % 1010,9 hPa 0,0 l/m 0,0 km/h (0 Bft) N 0,00 h 0,000 mm 0,0 UV-I 0 W/m -2,1 C -1,8 C 0,0 km/h (0 Bft) 95,94 %
03.02.2017 05:00 -2,0 C 98 % 1010,6 hPa 0,0 l/m 0,0 km/h (0 Bft) N 0,00 h 0,000 mm 0,0 UV-I 0 W/m -2,3 C -2,0 C 0,0 km/h (0 Bft) 95,30 %
03.02.2017 06:00 -2,1 C 98 % 1010,5 hPa 0,0 l/m 0,0 km/h (0 Bft) N 0,00 h 0,000 mm 0,0 UV-I 0 W/m -2,4 C -2,1 C 0,0 km/h (0 Bft) 97,08 %
03.02.2017 07:00 -2,1 C 98 % 1010,4 hPa 0,0 l/m 0,0 km/h (0 Bft) N 0,08 h 0,000 mm 0,0 UV-I 8 W/m -2,4 C -2,1 C 0,0 km/h (0 Bft) 95,10 %
03.02.2017 08:00 -2,2 C 98 % 1010,3 hPa 0,0 l/m 0,0 km/h (0 Bft) N 0,00 h 0,000 mm 0,0 UV-I 37 W/m -2,5 C -2,2 C 0,0 km/h (0 Bft) 97,22 %
03.02.2017 09:00 -2,0 C 98 % 1010,3 hPa 0,0 l/m 0,0 km/h (0 Bft) N 0,00 h 0,000 mm 0,0 UV-I 77 W/m -2,3 C -2,0 C 0,0 km/h (0 Bft) 94,82 %
03.02.2017 10:00 -1,8 C 98 % 1010,2 hPa 0,0 l/m 0,0 km/h (0 Bft) N 0,03 h 0,025 mm 0,4 UV-I 134 W/m -2,0 C -1,8 C 0,0 km/h (0 Bft) 98,52 %
03.02.2017 11:00 -1,4 C 98 % 1010,0 hPa 0,0 l/m 0,0 km/h (0 Bft) N 0,00 h 0,051 mm 0,6 UV-I 183 W/m -1,7 C -1,4 C 0,0 km/h (0 Bft) 97,96 %
03.02.2017 12:00 -1,2 C 98 % 1009,7 hPa 0,0 l/m 0,0 km/h (0 Bft) N 0,00 h 0,051 mm 0,5 UV-I 121 W/m -1,4 C -1,2 C 0,0 km/h (0 Bft) 99,00 %
03.02.2017 13:00 -1,0 C 98 % 1009,2 hPa 0,0 l/m 0,0 km/h (0 Bft) N 0,00 h 0,025 mm 0,5 UV-I 96 W/m -1,2 C -1,0 C 0,0 km/h (0 Bft) 98,47 %
03.02.2017 14:00 -0,8 C 98 % 1009,0 hPa 0,0 l/m 0,0 km/h (0 Bft) N 0,00 h 0,026 mm 0,0 UV-I 90 W/m -1,1 C -0,8 C 0,0 km/h (0 Bft) 98,57 %
03.02.2017 15:00 -0,7 C 98 % 1009,0 hPa 0,0 l/m 0,0 km/h (0 Bft) N 0,00 h 0,025 mm 0,0 UV-I 48 W/m -0,9 C -0,7 C 0,0 km/h (0 Bft) 97,93 %
03.02.2017 16:00 -0,7 C 98 % 1008,8 hPa 0,0 l/m 0,0 km/h (0 Bft) N 0,03 h 0,026 mm 0,0 UV-I 22 W/m -1,0 C -0,7 C 0,0 km/h (0 Bft) 98,89 %
03.02.2017 17:00 -0,8 C 98 % 1008,6 hPa 0,0 l/m 0,0 km/h (0 Bft) N 0,00 h 0,000 mm 0,0 UV-I 5 W/m -1,1 C -0,8 C 0,0 km/h (0 Bft) 98,41 %
03.02.2017 18:00 -0,9 C 98 % 1008,8 hPa 0,0 l/m 0,0 km/h (0 Bft) N 0,00 h 0,000 mm 0,0 UV-I 0 W/m -1,2 C -0,9 C 0,0 km/h (0 Bft) 99,12 %
03.02.2017 19:00 -0,9 C 98 % 1009,0 hPa 0,0 l/m 0,0 km/h (0 Bft) N 0,00 h 0,000 mm 0,0 UV-I 0 W/m -1,2 C -0,9 C 0,0 km/h (0 Bft) 97,83 %
03.02.2017 20:00 -0,9 C 98 % 1009,5 hPa 0,0 l/m 0,0 km/h (0 Bft) N 0,00 h 0,000 mm 0,0 UV-I 0 W/m -1,2 C -0,9 C 0,0 km/h (0 Bft) 98,49 %
03.02.2017 21:00 -0,9 C 98 % 1009,6 hPa 0,0 l/m 0,0 km/h (0 Bft) N 0,00 h 0,000 mm 0,0 UV-I 0 W/m -1,2 C -0,9 C 0,0 km/h (0 Bft) 97,56 %
03.02.2017 22:00 -0,9 C 98 % 1009,5 hPa 0,0 l/m 0,0 km/h (0 Bft) N 0,00 h 0,000 mm 0,0 UV-I 0 W/m -1,2 C -0,9 C 0,0 km/h (0 Bft) 99,57 %
03.02.2017 23:00 -0,9 C 98 % 1009,7 hPa 0,0 l/m 0,0 km/h (0 Bft) N 0,00 h 0,000 mm 0,0 UV-I 0 W/m -1,1 C -0,9 C 0,0 km/h (0 Bft) 98,35 %
04.02.2017 00:00 -0,8 C 99 % 1009,6 hPa 0,0 l/m 0,0 km/h (0 Bft) N 0,00 h 0,000 mm 0,0 UV-I 0 W/m -1,0 C -0,8 C 0,0 km/h (0 Bft) 99,41 %
04.02.2017 01:00 -0,8 C 99 % 1009,7 hPa 0,0 l/m 0,0 km/h (0 Bft) N 0,00 h 0,000 mm 0,0 UV-I 0 W/m -1,0 C -0,8 C 0,0 km/h (0 Bft) 98,31 %
04.02.2017 02:00 -0,7 C 99 % 1009,7 hPa 0,0 l/m 0,0 km/h (0 Bft) N 0,00 h 0,000 mm 0,0 UV-I 0 W/m -0,9 C -0,7 C 0,0 km/h (0 Bft) 98,95 %
04.02.2017 03:00 -0,5 C 99 % 1009,8 hPa 0,0 l/m 0,0 km/h (0 Bft) N 0,00 h 0,000 mm 0,0 UV-I 0 W/m -0,7 C -0,5 C 0,0 km/h (0 Bft) 98,13 %
04.02.2017 04:00 -0,3 C 99 % 1009,9 hPa 0,0 l/m 0,0 km/h (0 Bft) N 0,00 h 0,000 mm 0,0 UV-I 0 W/m -0,5 C -0,3 C 0,0 km/h (0 Bft) 99,53 %
04.02.2017 05:00 -0,1 C 99 % 1010,3 hPa 0,0 l/m 0,0 km/h (0 Bft) N 0,00 h 0,000 mm 0,0 UV-I 0 W/m -0,2 C -0,1 C 0,0 km/h (0 Bft) 98,13 %
04.02.2017 06:00 0,0 C 99 % 1010,1 hPa 0,0 l/m 0,0 km/h (0 Bft) N 0,00 h 0,000 mm 0,0 UV-I 0 W/m -0,1 C 0,0 C 0,0 km/h (0 Bft) 98,98 %
04.02.2017 07:00 -0,0 C 99 % 1009,9 hPa 0,0 l/m 0,0 km/h (0 Bft) N 0,00 h 0,000 mm 0,0 UV-I 10 W/m -0,2 C -0,0 C 0,0 km/h (0 Bft) 97,25 %
04.02.2017 08:00 -0,2 C 99 % 1009,8 hPa 0,0 l/m 0,0 km/h (0 Bft) N 0,37 h 0,000 mm 0,0 UV-I 89 W/m -0,4 C -0,2 C 0,0 km/h (0 Bft) 98,23 %
04.02.2017 09:00 -0,3 C 99 % 1009,2 hPa 0,0 l/m 0,0 km/h (0 Bft) N 0,20 h 0,025 mm 0,0 UV-I 126 W/m -0,4 C -0,3 C 0,0 km/h (0 Bft) 96,64 %
04.02.2017 10:00 -0,1 C 99 % 1008,0 hPa 0,0 l/m 0,0 km/h (0 Bft) N 0,00 h 0,051 mm 0,5 UV-I 177 W/m -0,2 C -0,1 C 0,0 km/h (0 Bft) 98,05 %
04.02.2017 11:00 0,7 C 99 % 1007,1 hPa 0,0 l/m 1,8 km/h (1 Bft) NO 0,70 h 0,051 mm 0,8 UV-I 314 W/m 0,5 C 0,4 C 2,7 km/h (1 Bft) 96,60 %
04.02.2017 12:00 2,2 C 99 % 1005,5 hPa 0,0 l/m 7,0 km/h (2 Bft) NO 1,00 h 0,102 mm 1,0 UV-I 439 W/m 2,0 C 1,5 C 10,5 km/h (2 Bft) 94,84 %
04.02.2017 13:00 3,5 C 93 % 1003,4 hPa 0,4 l/m 13,6 km/h (3 Bft) O-NO 1,00 h 0,152 mm 0,9 UV-I 402 W/m 2,6 C -1,8 C 19,1 km/h (3 Bft) 96,98 %
04.02.2017 14:00 4,1 C 91 % 1001,3 hPa 0,2 l/m 15,4 km/h (3 Bft) O-NO 0,53 h 0,152 mm 0,6 UV-I 229 W/m 2,7 C -2,0 C 21,2 km/h (4 Bft) 96,17 %
04.02.2017 15:00 4,3 C 90 % 1001,2 hPa 0,2 l/m 9,9 km/h (2 Bft) O-NO 0,53 h 0,102 mm 0,0 UV-I 131 W/m 2,8 C 1,4 C 15,5 km/h (3 Bft) 97,88 %
04.02.2017 16:00 4,0 C 91 % 1001,0 hPa 0,0 l/m 6,2 km/h (2 Bft) O-NO 0,20 h 0,051 mm 0,0 UV-I 39 W/m 2,7 C 3,2 C 10,3 km/h (2 Bft) 96,02 %
04.02.2017 17:00 3,2 C 94 % 1001,5 hPa 0,0 l/m 3,9 km/h (1 Bft) S-SW 0,00 h 0,025 mm 0,0 UV-I 7 W/m 2,3 C 3,1 C 7,1 km/h (2 Bft) 98,07 %
04.02.2017 18:00 1,4 C 96 % 1002,3 hPa 0,0 l/m 6,8 km/h (2 Bft) S-SW 0,00 h 0,000 mm 0,0 UV-I 0 W/m 0,8 C -0,2 C 10,1 km/h (2 Bft) 95,96 %
04.02.2017 19:00 1,8 C 97 % 1003,4 hPa 0,0 l/m 7,7 km/h (2 Bft) SW 0,00 h 0,000 mm 0,0 UV-I 0 W/m 1,4 C 0,4 C 12,2 km/h (3 Bft) 95,44 %
04.02.2017 20:00 2,3 C 96 % 1003,7 hPa 0,0 l/m 8,0 km/h (2 Bft) W-SW 0,00 h 0,000 mm 0,0 UV-I 0 W/m 1,8 C 0,3 C 13,0 km/h (3 Bft) 96,19 %
04.02.2017 21:00 2,2 C 96 % 1004,5 hPa 0,0 l/m 5,6 km/h (1 Bft) W 0,00 h 0,000 mm 0,0 UV-I 0 W/m 1,7 C 1,9 C 9,0 km/h (2 Bft) 97,13 %
04.02.2017 22:00 2,9 C 96 % 1005,8 hPa 0,0 l/m 8,6 km/h (2 Bft) W 0,00 h 0,000 mm 0,0 UV-I 0 W/m 2,4 C 0,9 C 13,9 km/h (3 Bft) 97,91 %
04.02.2017 23:00 2,8 C 95 % 1006,3 hPa 0,0 l/m 4,3 km/h (1 Bft) SW 0,00 h 0,000 mm 0,0 UV-I 0 W/m 2,0 C 2,5 C 7,0 km/h (2 Bft) 96,94 %
05.02.2017 00:00 4,2 C 90 % 1006,4 hPa 0,0 l/m 13,7 km/h (3 Bft) SW 0,00 h 0,000 mm 0,0 UV-I 0 W/m 2,7 C -0,9 C 20,4 km/h (4 Bft) 97,98 %
05.02.2017 01:00 4,5 C 85 % 1006,5 hPa 0,0 l/m 8,8 km/h (2 Bft) SW 0,00 h 0,025 mm 0,0 UV-I 0 W/m 2,2 C 2,6 C 13,5 km/h (3 Bft) 97,18 %
05.02.2017 02:00 4,3 C 84 % 1006,9 hPa 0,0 l/m 9,3 km/h (2 Bft) SW 0,00 h 0,026 mm 0,0 UV-I 0 W/m 1,7 C 1,9 C 14,2 km/h (3 Bft) 97,86 %
05.02.2017 03:00 4,7 C 78 % 1006,9 hPa 0,0 l/m 11,8 km/h (2 Bft) W-SW 0,00 h 0,025 mm 0,0 UV-I 0 W/m 1,2 C 0,8 C 17,8 km/h (3 Bft) 98,06 %
05.02.2017 04:00 4,4 C 78 % 1006,9 hPa 0,0 l/m 9,1 km/h (2 Bft) SW 0,00 h 0,026 mm 0,0 UV-I 0 W/m 0,9 C 2,2 C 14,0 km/h (3 Bft) 97,56 %
05.02.2017 05:00 4,3 C 78 % 1007,0 hPa 0,0 l/m 10,2 km/h (2 Bft) SW 0,00 h 0,025 mm 0,0 UV-I 0 W/m 0,7 C 1,2 C 16,0 km/h (3 Bft) 97,91 %
05.02.2017 06:00 3,5 C 79 % 1006,9 hPa 0,0 l/m 6,7 km/h (2 Bft) SW 0,00 h 0,025 mm 0,0 UV-I 0 W/m 0,1 C 3,0 C 10,4 km/h (2 Bft) 96,86 %
05.02.2017 07:00 3,4 C 76 % 1007,1 hPa 0,0 l/m 10,6 km/h (2 Bft) SW 0,17 h 0,026 mm 0,0 UV-I 15 W/m -0,5 C -0,0 C 15,8 km/h (3 Bft) 96,07 %
05.02.2017 08:00 3,5 C 74 % 1007,2 hPa 0,0 l/m 5,4 km/h (1 Bft) S-SW 1,00 h 0,025 mm 0,0 UV-I 139 W/m -0,7 C 3,1 C 8,5 km/h (2 Bft) 97,36 %
05.02.2017 09:00 5,2 C 66 % 1006,9 hPa 0,0 l/m 6,0 km/h (2 Bft) SW 1,00 h 0,076 mm 0,5 UV-I 279 W/m -0,5 C 5,1 C 9,2 km/h (2 Bft) 97,59 %
05.02.2017 10:00 6,7 C 61 % 1006,3 hPa 0,0 l/m 3,4 km/h (1 Bft) SW 1,00 h 0,127 mm 0,9 UV-I 392 W/m -0,4 C 6,7 C 5,6 km/h (1 Bft) 97,64 %
05.02.2017 11:00 7,0 C 59 % 1005,2 hPa 0,0 l/m 4,9 km/h (1 Bft) NO 1,00 h 0,178 mm 1,2 UV-I 460 W/m -0,5 C 6,7 C 7,2 km/h (2 Bft) 98,75 %
05.02.2017 12:00 6,8 C 60 % 1004,4 hPa 0,0 l/m 6,3 km/h (2 Bft) NO 1,00 h 0,229 mm 1,3 UV-I 455 W/m -0,5 C 6,5 C 8,8 km/h (2 Bft) 98,43 %
05.02.2017 13:00 6,4 C 63 % 1003,9 hPa 0,0 l/m 10,6 km/h (2 Bft) NO 0,67 h 0,228 mm 0,9 UV-I 262 W/m -0,2 C 3,3 C 14,7 km/h (3 Bft) 98,67 %
05.02.2017 14:00 5,7 C 67 % 1003,1 hPa 0,0 l/m 8,8 km/h (2 Bft) NO 0,00 h 0,153 mm 0,5 UV-I 151 W/m 0,0 C 3,7 C 13,3 km/h (3 Bft) 98,90 %
05.02.2017 15:00 5,7 C 68 % 1002,5 hPa 0,0 l/m 8,3 km/h (2 Bft) O-NO 0,93 h 0,101 mm 0,0 UV-I 170 W/m 0,1 C 4,0 C 12,4 km/h (3 Bft) 98,82 %
05.02.2017 16:00 5,0 C 69 % 1002,1 hPa 0,0 l/m 5,5 km/h (1 Bft) O-NO 0,20 h 0,102 mm 0,0 UV-I 44 W/m -0,2 C 4,7 C 8,1 km/h (2 Bft) 98,07 %
05.02.2017 17:00 4,2 C 72 % 1002,1 hPa 0,0 l/m 3,8 km/h (1 Bft) O-NO 0,00 h 0,025 mm 0,0 UV-I 6 W/m -0,4 C 4,2 C 5,8 km/h (2 Bft) 99,44 %
05.02.2017 18:00 4,1 C 71 % 1002,2 hPa 0,0 l/m 8,0 km/h (2 Bft) NO 0,00 h 0,026 mm 0,0 UV-I 0 W/m -0,7 C 2,2 C 11,9 km/h (2 Bft) 97,39 %
05.02.2017 19:00 4,6 C 70 % 1002,3 hPa 0,0 l/m 14,0 km/h (3 Bft) O-NO 0,00 h 0,025 mm 0,0 UV-I 0 W/m -0,5 C -0,8 C 20,6 km/h (4 Bft) 98,62 %
05.02.2017 20:00 4,0 C 74 % 1002,5 hPa 0,0 l/m 10,4 km/h (2 Bft) NO 0,00 h 0,051 mm 0,0 UV-I 0 W/m -0,1 C 0,8 C 16,4 km/h (3 Bft) 98,18 %
05.02.2017 21:00 3,5 C 78 % 1002,4 hPa 0,0 l/m 10,0 km/h (2 Bft) NO 0,00 h 0,025 mm 0,0 UV-I 0 W/m 0,1 C 0,6 C 15,0 km/h (3 Bft) 99,27 %
05.02.2017 22:00 3,1 C 82 % 1002,1 hPa 0,0 l/m 11,3 km/h (2 Bft) NO 0,00 h 0,026 mm 0,0 UV-I 0 W/m 0,3 C -0,9 C 17,1 km/h (3 Bft) 97,99 %
05.02.2017 23:00 2,7 C 86 % 1002,4 hPa 0,0 l/m 10,1 km/h (2 Bft) NO 0,00 h 0,025 mm 0,0 UV-I 0 W/m 0,5 C -0,5 C 14,6 km/h (3 Bft) 98,94 %
Min-Datum _ 30.01.17 05.02.17 04.02.17 - 30.01.17 - - - - - 30.01.17 30.01.17 30.01.17 03.02.17
_ Min-Zeit 00:52 11:10 14:22 - 18:26 - - - - - 00:52 21:10 18:26 09:08
Minimum _ -7,8 C 54 % 1000,7 hPa - 0,0 km/h (0 Bft) - - - - - -8,6 C -18,0 C 0,0 km/h (0 Bft) 80,00 %
Max-Datum _ 05.02.17 03.02.17 30.01.17 31.01.17 05.02.17 - 03.02.17 05.02.17 05.02.17 05.02.17 04.02.17 05.02.17 05.02.17 30.01.17
_ Max-Zeit 11:12 15:20 00:00 12:32 00:44 - 07:40 12:02 12:50 12:52 15:10 11:12 00:44 00:02
Maximum _ 7,7 C 99 % 1026,5 hPa 0,6 l/m 24,7 km/h
SW (4 Bft)
- 0,08 h 0,229 mm 1,4 UV-I 550 W/m 3,1 C 7,7 C 32,2 km/h
SW (5 Bft)
100,00 %
Durchschnitt _ -1,3 C 93 % 1014,1 hPa #1,6 l/m 4,3 km/h (1 Bft) O-NO #12:43 h #3,480 mm 0,7 UV-I 108 W/m -2,4 C -2,3 C 6,5 km/h (2 Bft) 97,45 %